Time;durP1;ratioP1;P1;durP2;ratioP2;P2;SDS_P1;SDS_P2;PMS_P1;PMS_P2;Temp;Humidity;BMP_temperature;BMP_pressure;BME280_temperature;BME280_humidity;BME280_pressure;Samples;Min_cycle;Max_cycle;Signal;HPM_P1;HPM_P2
2023/10/14 00:00:24;;;;;;;15.55;6.95;;;;;;;22.54;79.95;99160.38;8301903;28;20124;-60
2023/10/14 00:04:25;;;;;;;18.42;6.63;;;;;;;22.68;78.22;99167.25;8301555;28;20503;-61
2023/10/14 00:08:28;;;;;;;15.70;5.78;;;;;;;22.75;76.91;99162.38;8304849;28;20925;-62
2023/10/14 00:12:28;;;;;;;14.90;6.10;;;;;;;22.78;76.05;99156.38;8303507;28;20064;-60
2023/10/14 00:20:42;;;;;;;13.00;5.25;;;;;;;22.86;75.35;99163.38;8406950;27;20491;-59
2023/10/14 00:24:43;;;;;;;15.38;5.18;;;;;;;22.91;74.40;99161.50;8381268;28;20035;-59
2023/10/14 00:28:45;;;;;;;10.88;5.20;;;;;;;22.99;73.93;99155.59;8385339;27;20552;-60
2023/10/14 00:32:46;;;;;;;13.13;4.82;;;;;;;22.99;73.55;99163.84;8398782;27;20082;-59
2023/10/14 00:36:46;;;;;;;10.70;4.93;;;;;;;22.99;73.70;99169.38;8399935;27;20475;-59
2023/10/14 00:40:47;;;;;;;10.57;4.85;;;;;;;22.96;73.24;99174.53;8402671;27;20113;-59
2023/10/14 00:44:47;;;;;;;10.50;4.03;;;;;;;22.91;73.80;99178.06;8399842;27;20123;-59
2023/10/14 00:48:50;;;;;;;10.25;3.83;;;;;;;22.73;75.47;99175.59;8397505;27;20139;-59
2023/10/14 00:52:59;;;;;;;12.35;4.20;;;;;;;22.61;75.28;99172.09;8396119;27;20119;-60
2023/10/14 00:57:05;;;;;;;8.73;4.43;;;;;;;22.55;76.05;99164.81;8395349;27;20040;-60
2023/10/14 01:01:07;;;;;;;12.68;3.53;;;;;;;22.58;75.54;99166.22;8397783;27;20048;-59
2023/10/14 01:05:10;;;;;;;8.18;3.47;;;;;;;22.65;75.20;99170.50;8395141;27;20447;-61
2023/10/14 01:09:13;;;;;;;12.68;4.18;;;;;;;22.58;75.43;99167.09;8398134;27;20037;-61
2023/10/14 01:13:13;;;;;;;14.32;4.30;;;;;;;22.57;76.14;99195.69;8393630;27;20041;-63
2023/10/14 01:17:21;;;;;;;9.75;3.97;;;;;;;22.32;78.76;99195.22;8379529;28;20566;-63
2023/10/14 01:21:22;;;;;;;15.70;4.05;;;;;;;22.00;82.70;99204.25;8391136;27;20102;-62
2023/10/14 01:25:32;;;;;;;7.55;3.00;;;;;;;21.60;85.90;99201.50;8393688;27;20064;-59
2023/10/14 01:29:39;;;;;;;8.30;3.22;;;;;;;21.16;90.82;99193.91;8379944;27;20041;-62
2023/10/14 01:33:39;;;;;;;10.85;3.63;;;;;;;20.67;96.80;99197.09;8372560;28;20093;-60
2023/10/14 01:37:40;;;;;;;10.35;3.45;;;;;;;20.41;100.00;99201.16;8377128;28;20085;-61
2023/10/14 01:41:41;;;;;;;7.05;3.33;;;;;;;20.33;100.00;99200.63;8370691;28;20041;-59
2023/10/14 01:45:48;;;;;;;9.95;3.72;;;;;;;20.25;100.00;99190.84;8376042;28;20045;-59
2023/10/14 01:49:51;;;;;;;10.07;3.10;;;;;;;20.31;100.00;99186.34;8371694;28;20037;-59
2023/10/14 01:53:52;;;;;;;8.45;3.08;;;;;;;20.33;100.00;99192.41;8377420;28;20324;-59
2023/10/14 01:57:53;;;;;;;4.95;2.08;;;;;;;20.29;100.00;99193.94;8377491;28;20098;-59
2023/10/14 02:01:57;;;;;;;8.88;2.92;;;;;;;20.19;100.00;99190.94;8373563;28;20435;-59
2023/10/14 02:05:58;;;;;;;6.68;2.45;;;;;;;20.22;100.00;99195.97;8373286;28;20041;-60
2023/10/14 02:09:59;;;;;;;3.53;1.67;;;;;;;20.28;100.00;99192.28;8373316;28;20090;-59
2023/10/14 02:14:06;;;;;;;3.70;1.98;;;;;;;20.27;99.92;99190.59;8363935;28;20054;-62
2023/10/14 02:18:06;;;;;;;3.47;1.63;;;;;;;20.43;99.20;99176.22;8372141;28;20044;-62
2023/10/14 02:22:09;;;;;;;3.78;1.30;;;;;;;20.48;97.01;99245.81;8369581;28;20396;-62
2023/10/14 02:26:30;;;;;;;3.63;1.13;;;;;;;19.35;100.00;99298.75;8372796;28;20067;-62
2023/10/14 02:30:32;;;;;;;2.50;0.70;;;;;;;18.88;100.00;99317.72;8359043;28;20063;-62
2023/10/14 02:34:34;;;;;;;1.85;0.55;;;;;;;18.53;100.00;99333.75;8383700;28;20075;-62
2023/10/14 02:38:36;;;;;;;3.25;0.40;;;;;;;18.42;100.00;99372.75;8387929;28;20047;-62
2023/10/14 02:42:36;;;;;;;2.30;0.17;;;;;;;18.02;100.00;99382.16;8387373;28;20093;-62
2023/10/14 02:46:46;;;;;;;0.60;0.10;;;;;;;17.85;100.00;99412.94;8385690;28;20119;-62
2023/10/14 02:50:50;;;;;;;0.88;0.10;;;;;;;17.56;100.00;99408.78;8386699;28;20039;-62
2023/10/14 02:54:54;;;;;;;0.25;0.10;;;;;;;17.42;100.00;99445.34;8384879;28;20044;-62
2023/10/14 02:58:54;;;;;;;0.70;0.10;;;;;;;17.41;100.00;99449.09;8387481;28;20048;-62
2023/10/14 03:02:55;;;;;;;2.08;0.35;;;;;;;17.37;100.00;99450.59;8386237;28;20351;-60
2023/10/14 03:07:01;;;;;;;2.28;0.20;;;;;;;17.33;100.00;99463.00;8385338;28;20453;-64
2023/10/14 03:11:15;;;;;;;0.85;0.20;;;;;;;17.29;100.00;99475.38;8384769;28;20051;-60
2023/10/14 03:15:19;;;;;;;0.60;0.52;;;;;;;17.25;100.00;99495.97;8386746;28;20039;-60
2023/10/14 03:19:19;;;;;;;1.75;0.40;;;;;;;17.19;100.00;99507.72;8386532;28;20082;-60
2023/10/14 03:23:23;;;;;;;1.17;0.60;;;;;;;17.19;100.00;99515.94;8386344;28;20082;-62
2023/10/14 03:27:23;;;;;;;0.90;0.80;;;;;;;17.12;100.00;99536.94;8386514;28;20033;-62
2023/10/14 03:31:25;;;;;;;1.45;0.68;;;;;;;17.05;100.00;99536.06;8382098;28;20040;-62
2023/10/14 03:35:28;;;;;;;1.05;0.70;;;;;;;16.96;100.00;99559.16;8386950;28;20508;-60
2023/10/14 03:39:38;;;;;;;3.25;1.20;;;;;;;17.13;100.00;99565.91;8385822;28;20324;-60
2023/10/14 03:44:12;;;;;;;2.70;1.55;;;;;;;16.97;100.00;99593.59;8385196;28;20048;-61
2023/10/14 03:48:00;;;;;;;2.60;1.20;;;;;;;16.69;100.00;99620.97;8386004;28;20579;-60
2023/10/14 03:52:01;;;;;;;1.80;1.08;;;;;;;16.52;100.00;99632.41;8384528;28;20040;-60
2023/10/14 03:56:01;;;;;;;4.35;1.50;;;;;;;16.62;100.00;99644.66;8356935;28;20056;-61
2023/10/14 04:00:09;;;;;;;3.10;1.15;;;;;;;16.59;100.00;99655.13;8355645;28;20116;-62
2023/10/14 04:04:26;;;;;;;5.35;1.60;;;;;;;16.46;100.00;99682.31;8331404;27;20459;-59
2023/10/14 04:08:39;;;;;;;8.43;1.40;;;;;;;15.96;100.00;99685.22;8299800;28;20045;-59
2023/10/14 04:12:52;;;;;;;7.65;1.35;;;;;;;15.64;100.00;99720.09;8333505;28;20095;-60
2023/10/14 04:17:30;;;;;;;9.73;2.08;;;;;;;15.71;100.00;99726.47;8331279;28;20048;-60
2023/10/14 04:21:19;;;;;;;9.25;1.65;;;;;;;15.59;100.00;99728.00;8331704;28;20250;-60
2023/10/14 04:25:22;;;;;;;10.23;1.48;;;;;;;15.57;100.00;99746.44;8332927;28;20633;-59
2023/10/14 04:29:39;;;;;;;15.00;1.40;;;;;;;15.59;100.00;99766.16;8327050;28;20166;-60
2023/10/14 04:33:52;;;;;;;17.00;2.42;;;;;;;15.61;100.00;99769.53;8332488;28;20048;-60
2023/10/14 04:37:55;;;;;;;11.67;1.60;;;;;;;15.61;100.00;99785.03;8328495;28;20043;-60
2023/10/14 04:41:55;;;;;;;7.82;1.48;;;;;;;15.50;100.00;99799.97;8331590;28;20046;-59
2023/10/14 04:46:00;;;;;;;14.48;1.50;;;;;;;15.57;99.26;99797.34;8332568;28;20083;-61
2023/10/14 04:50:10;;;;;;;12.98;1.63;;;;;;;15.60;99.79;99808.72;8327465;28;20069;-60
2023/10/14 04:54:12;;;;;;;15.18;2.03;;;;;;;15.73;98.86;99816.22;8330739;28;20041;-62
2023/10/14 04:58:14;;;;;;;8.40;2.20;;;;;;;15.77;98.93;99823.81;8335051;28;20038;-60
2023/10/14 05:02:20;;;;;;;14.77;2.35;;;;;;;15.93;98.09;99832.81;8322262;28;20045;-59
2023/10/14 05:06:21;;;;;;;15.85;1.70;;;;;;;15.90;97.70;99855.00;8336653;28;20041;-62
2023/10/14 05:10:25;;;;;;;17.33;2.30;;;;;;;15.77;96.08;99856.53;8329748;28;20044;-61
2023/10/14 05:14:42;;;;;;;12.20;1.70;;;;;;;15.74;94.65;99862.34;8318139;28;20034;-61
2023/10/14 05:18:58;;;;;;;12.93;1.75;;;;;;;15.69;95.28;99878.44;8307947;28;20565;-61
2023/10/14 05:22:59;;;;;;;11.40;1.40;;;;;;;15.61;94.85;99881.25;8317260;28;20045;-61
2023/10/14 05:27:00;;;;;;;9.50;1.58;;;;;;;15.52;96.32;99895.16;8293518;28;20614;-61
2023/10/14 05:31:08;;;;;;;10.50;1.30;;;;;;;15.41;97.08;99910.06;8303707;28;20095;-61
2023/10/14 05:35:09;;;;;;;12.98;2.03;;;;;;;15.31;96.60;99914.91;8307537;28;20029;-61
2023/10/14 05:39:10;;;;;;;11.48;1.92;;;;;;;15.21;96.94;99925.25;8307245;28;20037;-61
2023/10/14 05:43:10;;;;;;;10.43;1.73;;;;;;;15.28;96.94;99923.47;8299261;28;20052;-61
2023/10/14 05:47:11;;;;;;;13.68;2.17;;;;;;;15.13;98.25;99938.09;8306654;28;20033;-61
2023/10/14 05:51:15;;;;;;;9.23;1.70;;;;;;;15.13;97.47;99944.38;8313956;28;20048;-61
2023/10/14 05:55:19;;;;;;;;;;;;;;;15.51;95.76;99958.84;8310696;28;20403;-61
2023/10/14 05:59:19;;;;;;;18.67;2.17;;;;;;;15.26;95.19;99958.22;8304585;28;20410;-60
2023/10/14 06:03:20;;;;;;;7.80;1.88;;;;;;;15.23;96.39;99977.66;8305495;28;20529;-60
2023/10/14 06:07:20;;;;;;;16.60;1.80;;;;;;;15.16;96.09;99993.00;8307024;28;20052;-58
2023/10/14 06:11:21;;;;;;;11.90;1.30;;;;;;;15.20;95.54;99999.81;8308899;28;20049;-59
2023/10/14 06:15:22;;;;;;;10.43;1.98;;;;;;;15.16;94.09;100009.34;8305389;28;20091;-59
2023/10/14 06:19:22;;;;;;;15.82;2.70;;;;;;;15.16;93.95;100020.25;8305406;28;20094;-59
2023/10/14 06:23:26;;;;;;;16.58;2.03;;;;;;;15.24;92.82;100028.34;8307585;28;20038;-58
2023/10/14 06:27:27;;;;;;;10.45;1.42;;;;;;;15.34;92.86;100031.66;8306100;28;20422;-59
2023/10/14 06:31:27;;;;;;;12.85;2.08;;;;;;;15.30;93.11;100032.22;8304066;28;20482;-58
2023/10/14 06:35:28;;;;;;;6.70;1.65;;;;;;;15.34;93.55;100045.28;8307775;28;20478;-60
2023/10/14 06:39:31;;;;;;;13.55;2.92;;;;;;;15.17;93.30;100035.56;8305951;28;20047;-60
2023/10/14 06:43:33;;;;;;;10.13;1.95;;;;;;;15.09;94.19;100057.41;8305349;28;20096;-60
2023/10/14 06:47:34;;;;;;;15.82;2.33;;;;;;;15.02;94.52;100066.47;8306723;28;20124;-61
2023/10/14 06:51:35;;;;;;;15.98;2.90;;;;;;;15.09;91.96;100068.28;8304014;28;20045;-62
2023/10/14 06:55:37;;;;;;;17.45;1.90;;;;;;;15.25;90.62;100062.72;8306128;28;20033;-62
2023/10/14 06:59:38;;;;;;;20.67;2.65;;;;;;;15.37;90.62;100077.66;8302493;28;20178;-61
2023/10/14 07:03:38;;;;;;;13.55;3.05;;;;;;;15.62;88.80;100081.88;8308508;28;20049;-60
2023/10/14 07:07:38;;;;;;;5.30;1.30;;;;;;;15.53;88.20;100091.13;8313166;28;20103;-60
2023/10/14 07:11:39;;;;;;;18.75;2.30;;;;;;;15.41;88.00;100100.75;8316190;28;20045;-61
2023/10/14 07:15:42;;;;;;;19.10;1.60;;;;;;;15.32;88.68;100101.84;8307693;28;20412;-60
2023/10/14 07:19:42;;;;;;;17.65;1.85;;;;;;;15.40;89.08;100118.16;8313124;28;20451;-61
2023/10/14 07:23:44;;;;;;;12.38;1.77;;;;;;;15.63;87.80;100120.88;8309825;28;20091;-61
2023/10/14 07:27:51;;;;;;;13.73;1.95;;;;;;;15.69;88.16;100131.91;8308918;28;20049;-57
2023/10/14 07:31:52;;;;;;;9.07;1.40;;;;;;;15.77;86.78;100135.59;8303532;28;20104;-58
2023/10/14 07:35:53;;;;;;;19.25;3.03;;;;;;;15.84;86.95;100151.03;8305070;28;20036;-58
2023/10/14 07:39:55;;;;;;;10.75;1.75;;;;;;;15.80;86.42;100155.16;8308362;28;20045;-58
2023/10/14 07:43:56;;;;;;;14.63;2.10;;;;;;;15.88;86.18;100156.94;8309636;28;20111;-59
2023/10/14 07:47:57;;;;;;;17.08;1.55;;;;;;;15.98;85.03;100163.00;8289825;28;20095;-58
2023/10/14 07:52:00;;;;;;;17.08;2.35;;;;;;;16.05;84.96;100169.41;8316257;28;20042;-59
2023/10/14 07:56:01;;;;;;;9.50;1.83;;;;;;;16.08;84.31;100191.72;8314208;28;20045;-59
2023/10/14 08:00:11;;;;;;;12.32;1.90;;;;;;;16.26;84.24;100194.97;8311793;28;20088;-59
2023/10/14 08:04:15;;;;;;;9.35;1.13;;;;;;;16.34;82.83;100207.66;8299764;28;20045;-59
2023/10/14 08:08:17;;;;;;;11.63;1.42;;;;;;;16.53;83.39;100213.47;8303713;28;20495;-59
2023/10/14 08:12:17;;;;;;;13.85;1.85;;;;;;;16.69;82.30;100220.66;8298220;28;20049;-59
2023/10/14 08:16:20;;;;;;;9.95;1.60;;;;;;;16.56;81.46;100218.56;8307535;28;20042;-58
2023/10/14 08:20:20;;;;;;;13.25;2.50;;;;;;;16.61;80.76;100221.59;8313775;28;20073;-59
2023/10/14 08:24:20;;;;;;;13.20;2.17;;;;;;;16.57;79.65;100224.88;8309943;28;20050;-59
2023/10/14 08:28:24;;;;;;;15.15;2.08;;;;;;;16.93;80.02;100236.78;8313750;28;20050;-61
2023/10/14 08:32:25;;;;;;;13.15;1.85;;;;;;;16.92;77.68;100245.97;8307797;28;20045;-60
2023/10/14 08:36:26;;;;;;;19.10;2.33;;;;;;;17.06;78.24;100253.34;8310213;28;20045;-58
2023/10/14 08:40:29;;;;;;;19.00;2.25;;;;;;;16.91;78.67;100260.69;8298121;28;20045;-58
2023/10/14 08:44:31;;;;;;;22.10;2.67;;;;;;;16.93;78.07;100262.19;8298580;28;20045;-59
2023/10/14 08:48:33;;;;;;;15.95;1.90;;;;;;;17.15;77.58;100268.59;8306972;28;20463;-60
2023/10/14 08:52:37;;;;;;;14.02;2.28;;;;;;;17.11;77.01;100275.50;8332753;28;20034;-60
2023/10/14 08:56:42;;;;;;;9.10;1.52;;;;;;;17.75;73.95;100282.88;8319760;28;20037;-59
2023/10/14 09:00:44;;;;;;;7.97;1.83;;;;;;;18.10;72.05;100276.56;8319166;28;20041;-60
2023/10/14 09:04:45;;;;;;;16.13;2.65;;;;;;;18.33;71.85;100277.19;8321932;28;20096;-59
2023/10/14 09:08:48;;;;;;;12.95;2.38;;;;;;;18.96;69.57;100279.88;8311100;28;20530;-60
2023/10/14 09:12:55;;;;;;;18.30;2.55;;;;;;;19.16;69.43;100289.03;8309001;28;20048;-60
2023/10/14 09:16:58;;;;;;;12.52;1.75;;;;;;;18.63;69.20;100295.19;8311621;28;20042;-58
2023/10/14 09:21:00;;;;;;;14.43;1.80;;;;;;;19.79;63.90;100287.09;8313550;28;20427;-59
2023/10/14 09:25:03;;;;;;;14.35;2.13;;;;;;;18.60;66.68;100301.06;8298729;28;20092;-59
2023/10/14 09:29:06;;;;;;;13.10;1.77;;;;;;;18.28;68.92;100304.31;8298278;28;20060;-59
2023/10/14 09:33:06;;;;;;;11.05;1.40;;;;;;;18.03;68.46;100313.94;8304980;28;20041;-59
2023/10/14 09:37:10;;;;;;;10.63;2.08;;;;;;;17.65;68.63;100317.88;8309036;28;20034;-58
2023/10/14 09:41:11;;;;;;;13.55;2.05;;;;;;;17.57;68.10;100318.00;8309985;28;20041;-58
2023/10/14 09:45:13;;;;;;;10.00;2.05;;;;;;;18.64;66.95;100320.69;8307884;28;20100;-57
2023/10/14 09:49:15;;;;;;;14.88;1.52;;;;;;;18.85;64.25;100315.19;8308112;28;20084;-60
2023/10/14 09:53:16;;;;;;;13.68;1.52;;;;;;;17.60;67.50;100329.38;8309756;28;20088;-59
2023/10/14 09:57:17;;;;;;;13.88;1.73;;;;;;;17.34;68.59;100339.94;8308824;28;20049;-58
2023/10/14 10:01:19;;;;;;;20.58;2.53;;;;;;;17.20;68.79;100332.56;8301754;28;20132;-59
2023/10/14 10:05:39;;;;;;;11.85;1.70;;;;;;;17.43;67.86;100324.31;8306995;28;20125;-57
2023/10/14 10:14:00;;;;;;;11.48;1.88;;;;;;;22.08;55.93;100330.81;8298955;27;20129;-59
2023/10/14 10:18:04;;;;;;;9.05;2.05;;;;;;;23.53;54.78;100328.66;8295847;28;20044;-59
2023/10/14 10:22:17;;;;;;;9.30;1.52;;;;;;;24.35;52.87;100328.94;8300548;28;20042;-59
2023/10/14 10:26:18;;;;;;;12.77;1.58;;;;;;;23.25;53.55;100348.47;8300502;28;20446;-59
2023/10/14 10:30:20;;;;;;;14.48;1.75;;;;;;;20.74;58.31;100358.09;8296222;28;20517;-60
2023/10/14 10:34:20;;;;;;;11.27;1.63;;;;;;;20.58;59.02;100360.41;8301645;28;20057;-57
2023/10/14 10:38:22;;;;;;;9.68;1.92;;;;;;;20.82;58.97;100351.53;8295020;28;20077;-57
2023/10/14 10:42:25;;;;;;;9.27;1.60;;;;;;;22.28;54.99;100350.00;8301264;28;20038;-57
2023/10/14 10:46:50;;;;;;;8.38;1.38;;;;;;;22.54;52.24;100347.94;8298425;28;20598;-56
2023/10/14 10:50:51;;;;;;;8.10;1.38;;;;;;;21.99;53.91;100340.38;8294918;28;20044;-58
2023/10/14 10:54:52;;;;;;;10.88;1.50;;;;;;;21.06;55.32;100342.72;8295102;28;20043;-58
2023/10/14 10:58:53;;;;;;;8.13;1.17;;;;;;;19.68;58.05;100345.28;8298223;28;20087;-57
2023/10/14 11:02:54;;;;;;;12.82;1.33;;;;;;;20.48;56.48;100346.22;8296242;28;20046;-57
2023/10/14 11:06:54;;;;;;;7.10;1.27;;;;;;;21.43;53.19;100339.28;8300694;28;20088;-57
2023/10/14 11:10:57;;;;;;;11.55;1.38;;;;;;;21.02;53.13;100358.78;8298332;28;20735;-57
2023/10/14 11:14:58;;;;;;;9.82;1.25;;;;;;;19.98;54.96;100363.16;8298427;28;20458;-57
2023/10/14 11:18:59;;;;;;;11.10;2.10;;;;;;;19.54;57.20;100349.03;8298533;28;20042;-57
2023/10/14 11:23:01;;;;;;;5.38;1.27;;;;;;;19.67;58.46;100362.81;8289691;28;20048;-57
2023/10/14 11:27:02;;;;;;;12.02;1.40;;;;;;;21.02;56.72;100369.75;8264050;28;20039;-59
2023/10/14 11:31:07;;;;;;;8.35;1.70;;;;;;;21.90;52.73;100366.50;8259385;28;20034;-57
2023/10/14 11:35:08;;;;;;;2.63;0.90;;;;;;;22.88;49.83;100364.03;8277141;28;20034;-57
2023/10/14 11:39:13;;;;;;;12.68;1.92;;;;;;;22.66;50.91;100365.47;8277507;28;20040;-57
2023/10/14 11:43:15;;;;;;;7.57;1.13;;;;;;;22.51;51.71;100367.69;8272013;28;20045;-57
2023/10/14 11:47:17;;;;;;;6.53;1.35;;;;;;;23.64;48.26;100358.28;8274873;28;20045;-59
2023/10/14 11:51:19;;;;;;;7.13;0.88;;;;;;;23.08;48.71;100373.00;8260049;28;20044;-58
2023/10/14 11:55:20;;;;;;;9.10;1.45;;;;;;;22.89;49.68;100365.75;8275557;28;20458;-57
2023/10/14 11:59:21;;;;;;;7.75;0.95;;;;;;;23.89;46.93;100367.34;8274826;28;20067;-57
2023/10/14 12:03:25;;;;;;;6.00;1.05;;;;;;;23.39;45.16;100372.09;8274163;28;20056;-58
2023/10/14 12:07:26;;;;;;;6.57;1.00;;;;;;;23.14;47.40;100374.88;8265772;28;20417;-57
2023/10/14 12:11:27;;;;;;;8.05;1.35;;;;;;;24.10;48.11;100365.00;8242466;28;20042;-58
2023/10/14 12:15:28;;;;;;;10.43;1.50;;;;;;;23.43;48.37;100362.31;8242826;28;20090;-57
2023/10/14 12:19:28;;;;;;;6.40;1.02;;;;;;;21.40;50.93;100371.88;8244663;28;20405;-60
2023/10/14 12:23:31;;;;;;;10.48;1.65;;;;;;;20.71;53.37;100375.00;8241378;28;20049;-61
2023/10/14 12:27:33;;;;;;;10.32;1.70;;;;;;;19.40;54.51;100376.34;8275781;28;20543;-59
2023/10/14 12:31:38;;;;;;;8.27;1.45;;;;;;;19.05;55.79;100380.06;8271260;28;20057;-58
2023/10/14 12:35:40;;;;;;;13.52;1.30;;;;;;;19.21;56.34;100377.03;8273061;28;20046;-59
2023/10/14 12:39:44;;;;;;;11.13;1.15;;;;;;;19.29;55.06;100382.41;8275869;28;20220;-59
2023/10/14 12:43:50;;;;;;;10.75;1.58;;;;;;;19.08;55.10;100393.38;8273974;28;20097;-60
2023/10/14 12:48:24;;;;;;;9.55;1.30;;;;;;;18.60;58.11;100379.66;8267937;28;20050;-59
2023/10/14 12:52:12;;;;;;;6.88;1.27;;;;;;;18.71;55.14;100390.91;8271424;28;20085;-59
2023/10/14 12:56:15;;;;;;;7.10;1.10;;;;;;;18.89;55.28;100390.44;8273094;28;20057;-59
2023/10/14 13:00:24;;;;;;;7.40;1.65;;;;;;;18.67;53.94;100388.78;8252128;28;20065;-59
2023/10/14 13:04:27;;;;;;;8.10;1.85;;;;;;;18.65;54.08;100394.44;8269835;28;20046;-60
2023/10/14 13:08:27;;;;;;;8.90;1.05;;;;;;;18.21;55.42;100401.06;8268951;28;20104;-59
2023/10/14 13:12:28;;;;;;;8.10;1.33;;;;;;;17.88;55.90;100403.41;8273435;28;20105;-59
2023/10/14 13:16:31;;;;;;;9.15;1.08;;;;;;;18.29;55.60;100412.75;8274487;28;20042;-59
2023/10/14 13:20:34;;;;;;;10.85;1.55;;;;;;;18.48;54.77;100414.88;8272065;28;20033;-59
2023/10/14 13:24:37;;;;;;;6.68;1.25;;;;;;;18.56;55.45;100403.81;8274688;28;20372;-59
2023/10/14 13:28:37;;;;;;;7.90;1.13;;;;;;;18.52;55.42;100413.47;8268014;28;20117;-60
2023/10/14 13:32:37;;;;;;;6.13;1.23;;;;;;;18.57;55.07;100416.47;8272186;28;20034;-60
2023/10/14 13:36:38;;;;;;;11.05;1.52;;;;;;;18.37;55.54;100414.56;8270791;28;20389;-60
2023/10/14 13:40:40;;;;;;;9.30;1.60;;;;;;;18.12;57.21;100424.97;8274922;28;20034;-59
2023/10/14 13:44:40;;;;;;;8.68;1.70;;;;;;;17.96;55.81;100416.94;8271868;28;20040;-59
2023/10/14 13:48:40;;;;;;;10.95;1.60;;;;;;;17.94;55.80;100424.53;8273335;28;20035;-60
2023/10/14 13:52:42;;;;;;;9.15;1.77;;;;;;;18.07;56.21;100441.09;8274173;28;20048;-56
2023/10/14 13:56:42;;;;;;;8.40;1.67;;;;;;;17.62;58.86;100435.81;8271559;28;20053;-56
2023/10/14 14:00:49;;;;;;;7.05;1.00;;;;;;;17.34;57.99;100438.31;8268723;28;20037;-58
2023/10/14 14:04:51;;;;;;;5.90;1.20;;;;;;;17.07;58.80;100447.09;8271825;28;20037;-58
2023/10/14 14:08:53;;;;;;;8.07;1.02;;;;;;;16.93;58.40;100460.72;8272805;28;20088;-59
2023/10/14 14:12:54;;;;;;;4.30;1.13;;;;;;;16.95;58.77;100459.50;8273588;28;20077;-58
2023/10/14 14:16:54;;;;;;;2.42;0.63;;;;;;;16.99;58.80;100462.72;8270899;28;20090;-58
2023/10/14 14:20:55;;;;;;;6.32;1.33;;;;;;;16.84;59.25;100464.56;8273246;28;20046;-59
2023/10/14 14:24:55;;;;;;;8.15;0.73;;;;;;;16.76;60.87;100461.88;8272726;28;20601;-58
2023/10/14 14:28:57;;;;;;;11.25;1.48;;;;;;;16.63;60.44;100469.81;8270968;28;20184;-57
2023/10/14 14:32:58;;;;;;;6.68;1.15;;;;;;;16.56;61.17;100487.94;8269036;28;20131;-59
2023/10/14 14:36:59;;;;;;;9.48;1.15;;;;;;;16.45;61.35;100488.34;8273122;28;20042;-58
2023/10/14 14:41:01;;;;;;;9.75;1.30;;;;;;;16.47;61.64;100497.22;8272663;28;20041;-58
2023/10/14 14:45:06;;;;;;;5.55;1.00;;;;;;;16.45;61.44;100493.78;8276239;28;20440;-58
2023/10/14 14:49:11;;;;;;;6.13;1.20;;;;;;;16.33;62.03;100506.09;8273716;28;20095;-58
2023/10/14 14:53:12;;;;;;;5.95;0.80;;;;;;;16.38;62.89;100514.63;8268061;28;20073;-58
2023/10/14 14:57:12;;;;;;;11.10;1.10;;;;;;;16.51;63.34;100509.47;8274658;28;20073;-58
2023/10/14 15:01:19;;;;;;;8.30;1.30;;;;;;;16.82;62.73;100523.94;8274730;28;20038;-62
2023/10/14 15:05:19;;;;;;;12.48;1.30;;;;;;;16.74;64.04;100537.66;8277955;28;20439;-61
2023/10/14 15:09:20;;;;;;;10.35;1.15;;;;;;;16.39;62.57;100560.84;8277101;28;20400;-61
2023/10/14 15:13:20;;;;;;;4.55;0.80;;;;;;;15.59;66.99;100570.03;8276590;28;20104;-62
2023/10/14 15:17:23;;;;;;;7.85;1.52;;;;;;;14.51;73.46;100573.06;8276312;28;20450;-62
2023/10/14 15:21:24;;;;;;;9.43;1.13;;;;;;;14.08;76.30;100563.16;8276957;28;20145;-61
2023/10/14 15:25:25;;;;;;;4.82;0.70;;;;;;;13.92;78.44;100548.63;8278690;28;20042;-61
2023/10/14 15:29:26;;;;;;;5.60;1.60;;;;;;;13.77;76.42;100551.09;8275163;28;20038;-61
2023/10/14 15:33:26;;;;;;;8.40;0.88;;;;;;;13.71;79.99;100549.00;8274405;28;20037;-62
2023/10/14 15:37:26;;;;;;;12.93;1.30;;;;;;;13.65;79.29;100549.66;8277111;28;20069;-61
2023/10/14 15:41:30;;;;;;;8.13;0.93;;;;;;;13.81;79.29;100545.16;8274617;28;20399;-63
2023/10/14 15:45:34;;;;;;;4.32;0.82;;;;;;;13.95;78.74;100553.75;8278271;28;20123;-61
2023/10/14 15:49:37;;;;;;;11.50;1.33;;;;;;;14.07;79.92;100544.28;8271779;28;20042;-61
2023/10/14 15:53:38;;;;;;;10.23;1.20;;;;;;;14.18;80.90;100550.28;8277762;28;20384;-61
2023/10/14 15:57:40;;;;;;;3.70;1.08;;;;;;;14.21;79.33;100560.84;8277129;28;20038;-61
2023/10/14 16:01:42;;;;;;;7.82;1.60;;;;;;;14.32;79.68;100557.88;8271818;28;20030;-60
2023/10/14 16:05:44;;;;;;;5.07;1.27;;;;;;;14.32;80.18;100557.88;8274993;28;20041;-60
2023/10/14 16:09:45;;;;;;;11.68;4.85;;;;;;;14.29;80.43;100551.91;8277544;28;20042;-59
2023/10/14 16:13:46;;;;;;;11.45;4.38;;;;;;;14.26;81.12;100563.09;8275850;28;20052;-61
2023/10/14 16:17:52;;;;;;;10.50;1.80;;;;;;;14.32;81.76;100567.88;8274795;28;20085;-64
2023/10/14 16:21:55;;;;;;;9.50;1.55;;;;;;;14.42;81.70;100574.91;8277060;28;20384;-58
2023/10/14 16:25:56;;;;;;;9.82;1.73;;;;;;;14.37;82.61;100576.44;8274082;28;20043;-58
2023/10/14 16:29:57;;;;;;;8.75;1.27;;;;;;;14.47;83.33;100583.44;8272099;28;20045;-58
2023/10/14 16:33:58;;;;;;;9.73;1.70;;;;;;;14.53;82.08;100590.94;8275863;28;20065;-57
2023/10/14 16:37:59;;;;;;;7.35;1.75;;;;;;;14.53;80.75;100593.66;8275804;28;20119;-58
2023/10/14 16:42:00;;;;;;;13.60;1.95;;;;;;;14.54;80.98;100611.69;8274114;28;20057;-62
2023/10/14 16:46:00;;;;;;;5.72;0.90;;;;;;;14.47;81.28;100602.50;8273556;28;20104;-57
2023/10/14 16:50:01;;;;;;;9.13;1.58;;;;;;;14.27;82.76;100620.06;8275065;28;20034;-58
2023/10/14 16:54:01;;;;;;;10.48;1.73;;;;;;;14.23;83.11;100618.69;8275402;28;20042;-59
2023/10/14 16:58:02;;;;;;;5.05;1.15;;;;;;;14.15;82.54;100623.19;8273234;28;20053;-58
2023/10/14 17:02:03;;;;;;;9.40;1.92;;;;;;;14.13;81.19;100622.50;8269372;28;20048;-58
2023/10/14 17:06:03;;;;;;;8.48;2.20;;;;;;;14.15;80.38;100626.75;8273823;28;20097;-59
2023/10/14 17:10:08;;;;;;;9.52;2.15;;;;;;;14.31;79.58;100635.06;8275418;28;20036;-58
2023/10/14 17:14:08;;;;;;;11.13;1.55;;;;;;;14.31;78.43;100640.50;8273269;28;20263;-60
2023/10/14 17:18:09;;;;;;;9.20;1.92;;;;;;;14.36;78.15;100650.88;8274948;28;20524;-60
2023/10/14 17:22:12;;;;;;;5.75;1.40;;;;;;;14.28;77.65;100659.84;8274900;28;20124;-62
2023/10/14 17:26:13;;;;;;;11.60;1.77;;;;;;;14.18;77.69;100664.50;8274290;28;20041;-62
2023/10/14 17:30:14;;;;;;;9.73;2.13;;;;;;;14.14;77.28;100668.56;8268366;28;20060;-62
2023/10/14 17:34:14;;;;;;;7.03;1.60;;;;;;;14.12;77.07;100673.28;8274836;28;20093;-61
2023/10/14 17:38:16;;;;;;;10.73;2.08;;;;;;;14.18;76.25;100686.25;8273265;28;20046;-62
2023/10/14 17:42:17;;;;;;;10.02;1.50;;;;;;;14.19;75.71;100684.38;8273301;28;20447;-58
2023/10/14 17:46:20;;;;;;;7.50;2.15;;;;;;;14.18;77.28;100694.41;8274845;28;20064;-58
2023/10/14 17:50:24;;;;;;;5.80;1.60;;;;;;;14.17;78.66;100706.31;8268593;28;20415;-58
2023/10/14 17:54:24;;;;;;;14.65;2.05;;;;;;;14.14;79.32;100701.19;8273906;28;20456;-61
2023/10/14 17:58:24;;;;;;;9.02;2.20;;;;;;;14.13;79.16;100704.91;8270320;28;20351;-61
2023/10/14 18:02:25;;;;;;;13.48;2.20;;;;;;;14.10;79.37;100707.97;8272063;28;20042;-60
2023/10/14 18:06:26;;;;;;;13.48;2.50;;;;;;;14.17;79.71;100717.19;8271704;28;20034;-60
2023/10/14 18:10:28;;;;;;;11.02;2.00;;;;;;;14.18;79.48;100713.44;8272053;28;20145;-60
2023/10/14 18:14:28;;;;;;;6.85;1.55;;;;;;;14.20;79.03;100721.44;8272905;28;20046;-61
2023/10/14 18:18:29;;;;;;;9.82;1.55;;;;;;;14.21;80.20;100729.44;8274162;28;20093;-61
2023/10/14 18:22:29;;;;;;;9.20;1.40;;;;;;;14.24;79.82;100731.88;8269866;28;20046;-60
2023/10/14 18:26:30;;;;;;;13.23;1.67;;;;;;;14.17;79.93;100733.50;8273047;28;20034;-61
2023/10/14 18:30:30;;;;;;;12.30;1.83;;;;;;;14.14;80.82;100741.97;8267117;28;20399;-60
2023/10/14 18:34:31;;;;;;;18.55;2.33;;;;;;;14.15;80.55;100740.94;8278363;28;20373;-60
2023/10/14 18:38:33;;;;;;;8.55;2.28;;;;;;;14.11;80.71;100745.00;8273856;28;20515;-59
2023/10/14 18:42:33;;;;;;;13.88;1.98;;;;;;;14.10;80.78;100748.75;8279778;28;20069;-60
2023/10/14 18:46:34;;;;;;;7.28;1.25;;;;;;;14.05;80.21;100752.91;8280052;28;20042;-60
2023/10/14 18:50:38;;;;;;;8.80;1.60;;;;;;;13.99;80.58;100757.13;8280349;28;20068;-60